sensor_id;sensor_type;location;lat;lon;timestamp;P1;durP1;ratioP1;P2;durP2;ratioP2
83404;SDS011;73331;48.168;20.776;2023-11-22T00:01:11;43.20;;;14.52;;
83404;SDS011;73331;48.168;20.776;2023-11-22T00:02:42;45.28;;;14.88;;
83404;SDS011;73331;48.168;20.776;2023-11-22T00:04:13;35.47;;;13.25;;
83404;SDS011;73331;48.168;20.776;2023-11-22T00:05:44;42.80;;;15.45;;
83404;SDS011;73331;48.168;20.776;2023-11-22T00:07:15;43.85;;;15.32;;
83404;SDS011;73331;48.168;20.776;2023-11-22T00:08:46;37.53;;;14.80;;
83404;SDS011;73331;48.168;20.776;2023-11-22T00:10:17;34.38;;;12.30;;
83404;SDS011;73331;48.168;20.776;2023-11-22T00:11:48;36.67;;;13.50;;
83404;SDS011;73331;48.168;20.776;2023-11-22T00:13:20;38.22;;;14.57;;
83404;SDS011;73331;48.168;20.776;2023-11-22T00:14:50;32.58;;;12.10;;
83404;SDS011;73331;48.168;20.776;2023-11-22T00:16:22;35.90;;;14.02;;
83404;SDS011;73331;48.168;20.776;2023-11-22T00:17:53;30.20;;;13.23;;
83404;SDS011;73331;48.168;20.776;2023-11-22T00:19:24;29.92;;;12.20;;
83404;SDS011;73331;48.168;20.776;2023-11-22T00:20:55;37.05;;;13.48;;
83404;SDS011;73331;48.168;20.776;2023-11-22T00:22:26;31.05;;;13.57;;
83404;SDS011;73331;48.168;20.776;2023-11-22T00:23:57;40.13;;;14.57;;
83404;SDS011;73331;48.168;20.776;2023-11-22T00:25:28;36.47;;;15.60;;
83404;SDS011;73331;48.168;20.776;2023-11-22T00:26:59;38.47;;;14.48;;
83404;SDS011;73331;48.168;20.776;2023-11-22T00:28:30;36.45;;;13.13;;
83404;SDS011;73331;48.168;20.776;2023-11-22T00:30:00;39.20;;;15.43;;
83404;SDS011;73331;48.168;20.776;2023-11-22T00:31:31;38.83;;;14.45;;
83404;SDS011;73331;48.168;20.776;2023-11-22T00:33:01;31.45;;;12.90;;
83404;SDS011;73331;48.168;20.776;2023-11-22T00:34:32;34.42;;;13.55;;
83404;SDS011;73331;48.168;20.776;2023-11-22T00:36:03;34.58;;;14.70;;
83404;SDS011;73331;48.168;20.776;2023-11-22T00:37:34;36.17;;;13.60;;
83404;SDS011;73331;48.168;20.776;2023-11-22T00:39:05;42.20;;;15.20;;
83404;SDS011;73331;48.168;20.776;2023-11-22T00:40:35;38.22;;;13.30;;
83404;SDS011;73331;48.168;20.776;2023-11-22T00:42:06;36.65;;;15.27;;
83404;SDS011;73331;48.168;20.776;2023-11-22T00:43:37;35.95;;;14.88;;
83404;SDS011;73331;48.168;20.776;2023-11-22T00:45:09;46.08;;;17.40;;
83404;SDS011;73331;48.168;20.776;2023-11-22T00:46:40;43.03;;;15.63;;
83404;SDS011;73331;48.168;20.776;2023-11-22T00:48:12;38.05;;;15.25;;
83404;SDS011;73331;48.168;20.776;2023-11-22T00:49:42;42.30;;;15.70;;
83404;SDS011;73331;48.168;20.776;2023-11-22T00:51:13;39.33;;;14.52;;
83404;SDS011;73331;48.168;20.776;2023-11-22T00:52:44;37.75;;;16.20;;
83404;SDS011;73331;48.168;20.776;2023-11-22T00:54:15;40.25;;;13.55;;
83404;SDS011;73331;48.168;20.776;2023-11-22T00:55:45;35.05;;;15.48;;
83404;SDS011;73331;48.168;20.776;2023-11-22T00:57:16;39.13;;;13.98;;
83404;SDS011;73331;48.168;20.776;2023-11-22T00:58:47;37.30;;;14.80;;
83404;SDS011;73331;48.168;20.776;2023-11-22T01:00:19;33.28;;;13.70;;
83404;SDS011;73331;48.168;20.776;2023-11-22T01:01:50;34.60;;;13.35;;
83404;SDS011;73331;48.168;20.776;2023-11-22T01:03:21;27.77;;;11.45;;
83404;SDS011;73331;48.168;20.776;2023-11-22T01:04:52;31.08;;;12.15;;
83404;SDS011;73331;48.168;20.776;2023-11-22T01:06:23;35.53;;;13.30;;
83404;SDS011;73331;48.168;20.776;2023-11-22T01:07:54;33.22;;;12.25;;
83404;SDS011;73331;48.168;20.776;2023-11-22T01:09:25;32.33;;;12.90;;
83404;SDS011;73331;48.168;20.776;2023-11-22T01:10:55;35.42;;;13.13;;
83404;SDS011;73331;48.168;20.776;2023-11-22T01:12:27;32.67;;;12.43;;
83404;SDS011;73331;48.168;20.776;2023-11-22T01:13:58;32.92;;;12.52;;
83404;SDS011;73331;48.168;20.776;2023-11-22T01:15:29;35.00;;;13.32;;
83404;SDS011;73331;48.168;20.776;2023-11-22T01:16:59;29.33;;;11.68;;
83404;SDS011;73331;48.168;20.776;2023-11-22T01:18:30;30.20;;;11.45;;
83404;SDS011;73331;48.168;20.776;2023-11-22T01:20:01;32.58;;;11.88;;
83404;SDS011;73331;48.168;20.776;2023-11-22T01:21:33;30.85;;;12.00;;
83404;SDS011;73331;48.168;20.776;2023-11-22T01:23:04;28.83;;;11.82;;
83404;SDS011;73331;48.168;20.776;2023-11-22T01:24:34;28.38;;;12.77;;
83404;SDS011;73331;48.168;20.776;2023-11-22T01:26:07;27.40;;;12.07;;
83404;SDS011;73331;48.168;20.776;2023-11-22T01:27:37;30.40;;;13.30;;
83404;SDS011;73331;48.168;20.776;2023-11-22T01:29:08;32.50;;;12.10;;
83404;SDS011;73331;48.168;20.776;2023-11-22T01:30:42;26.77;;;11.00;;
83404;SDS011;73331;48.168;20.776;2023-11-22T01:32:15;24.05;;;10.38;;
83404;SDS011;73331;48.168;20.776;2023-11-22T01:33:47;28.60;;;11.43;;
83404;SDS011;73331;48.168;20.776;2023-11-22T01:35:18;26.00;;;11.15;;
83404;SDS011;73331;48.168;20.776;2023-11-22T01:36:52;28.73;;;11.85;;
83404;SDS011;73331;48.168;20.776;2023-11-22T01:38:22;30.27;;;11.82;;
83404;SDS011;73331;48.168;20.776;2023-11-22T01:39:55;27.95;;;11.80;;
83404;SDS011;73331;48.168;20.776;2023-11-22T01:41:25;33.72;;;12.43;;
83404;SDS011;73331;48.168;20.776;2023-11-22T01:42:56;25.83;;;11.52;;
83404;SDS011;73331;48.168;20.776;2023-11-22T01:44:27;25.77;;;10.68;;
83404;SDS011;73331;48.168;20.776;2023-11-22T01:45:57;27.95;;;11.95;;
83404;SDS011;73331;48.168;20.776;2023-11-22T01:47:28;24.38;;;10.32;;
83404;SDS011;73331;48.168;20.776;2023-11-22T01:48:59;27.42;;;9.85;;
83404;SDS011;73331;48.168;20.776;2023-11-22T01:50:31;27.70;;;10.77;;
83404;SDS011;73331;48.168;20.776;2023-11-22T01:52:01;22.48;;;10.40;;
83404;SDS011;73331;48.168;20.776;2023-11-22T01:53:34;25.27;;;10.60;;
83404;SDS011;73331;48.168;20.776;2023-11-22T01:55:05;25.58;;;10.23;;
83404;SDS011;73331;48.168;20.776;2023-11-22T01:56:36;28.48;;;12.98;;
83404;SDS011;73331;48.168;20.776;2023-11-22T01:59:39;23.38;;;11.32;;
83404;SDS011;73331;48.168;20.776;2023-11-22T02:01:10;22.73;;;10.23;;
83404;SDS011;73331;48.168;20.776;2023-11-22T02:02:43;28.38;;;12.77;;
83404;SDS011;73331;48.168;20.776;2023-11-22T02:04:13;25.55;;;11.27;;
83404;SDS011;73331;48.168;20.776;2023-11-22T02:05:44;31.63;;;12.18;;
83404;SDS011;73331;48.168;20.776;2023-11-22T02:07:15;31.20;;;12.27;;
83404;SDS011;73331;48.168;20.776;2023-11-22T02:08:47;28.38;;;11.80;;
83404;SDS011;73331;48.168;20.776;2023-11-22T02:10:17;28.77;;;12.85;;
83404;SDS011;73331;48.168;20.776;2023-11-22T02:11:48;33.88;;;13.10;;
83404;SDS011;73331;48.168;20.776;2023-11-22T02:13:19;30.10;;;11.82;;
83404;SDS011;73331;48.168;20.776;2023-11-22T02:14:51;29.35;;;11.27;;
83404;SDS011;73331;48.168;20.776;2023-11-22T02:16:21;35.78;;;14.15;;
83404;SDS011;73331;48.168;20.776;2023-11-22T02:17:52;37.53;;;13.15;;
83404;SDS011;73331;48.168;20.776;2023-11-22T02:19:23;30.35;;;12.18;;
83404;SDS011;73331;48.168;20.776;2023-11-22T02:20:54;29.10;;;11.60;;
83404;SDS011;73331;48.168;20.776;2023-11-22T02:22:24;36.17;;;12.85;;
83404;SDS011;73331;48.168;20.776;2023-11-22T02:23:55;47.80;;;15.32;;
83404;SDS011;73331;48.168;20.776;2023-11-22T02:25:26;41.58;;;15.05;;
83404;SDS011;73331;48.168;20.776;2023-11-22T02:26:57;36.90;;;11.93;;
83404;SDS011;73331;48.168;20.776;2023-11-22T02:28:27;36.85;;;13.32;;
83404;SDS011;73331;48.168;20.776;2023-11-22T02:29:58;39.65;;;13.10;;
83404;SDS011;73331;48.168;20.776;2023-11-22T02:31:29;41.75;;;13.70;;
83404;SDS011;73331;48.168;20.776;2023-11-22T02:33:00;39.47;;;14.60;;
83404;SDS011;73331;48.168;20.776;2023-11-22T02:34:31;32.60;;;11.85;;
83404;SDS011;73331;48.168;20.776;2023-11-22T02:36:01;34.47;;;14.02;;
83404;SDS011;73331;48.168;20.776;2023-11-22T02:37:33;29.33;;;11.02;;
83404;SDS011;73331;48.168;20.776;2023-11-22T02:39:04;30.15;;;11.10;;
83404;SDS011;73331;48.168;20.776;2023-11-22T02:40:35;35.15;;;13.15;;
83404;SDS011;73331;48.168;20.776;2023-11-22T02:42:05;39.00;;;12.63;;
83404;SDS011;73331;48.168;20.776;2023-11-22T02:43:36;36.67;;;12.48;;
83404;SDS011;73331;48.168;20.776;2023-11-22T02:45:07;38.45;;;13.43;;
83404;SDS011;73331;48.168;20.776;2023-11-22T02:46:38;36.42;;;12.70;;
83404;SDS011;73331;48.168;20.776;2023-11-22T02:48:09;35.88;;;12.32;;
83404;SDS011;73331;48.168;20.776;2023-11-22T02:49:40;30.83;;;10.50;;
83404;SDS011;73331;48.168;20.776;2023-11-22T02:51:11;31.55;;;11.35;;
83404;SDS011;73331;48.168;20.776;2023-11-22T02:52:42;28.88;;;11.00;;
83404;SDS011;73331;48.168;20.776;2023-11-22T02:54:12;35.67;;;13.27;;
83404;SDS011;73331;48.168;20.776;2023-11-22T02:55:43;31.27;;;12.15;;
83404;SDS011;73331;48.168;20.776;2023-11-22T02:57:13;27.75;;;10.40;;
83404;SDS011;73331;48.168;20.776;2023-11-22T02:58:44;29.95;;;11.40;;
83404;SDS011;73331;48.168;20.776;2023-11-22T03:00:16;35.53;;;12.68;;
83404;SDS011;73331;48.168;20.776;2023-11-22T03:01:49;31.38;;;10.75;;
83404;SDS011;73331;48.168;20.776;2023-11-22T03:03:21;29.17;;;11.73;;
83404;SDS011;73331;48.168;20.776;2023-11-22T03:04:52;36.28;;;12.88;;
83404;SDS011;73331;48.168;20.776;2023-11-22T03:06:23;32.13;;;11.82;;
83404;SDS011;73331;48.168;20.776;2023-11-22T03:07:54;40.65;;;11.45;;
83404;SDS011;73331;48.168;20.776;2023-11-22T03:09:25;32.80;;;10.63;;
83404;SDS011;73331;48.168;20.776;2023-11-22T03:10:56;37.13;;;11.45;;
83404;SDS011;73331;48.168;20.776;2023-11-22T03:12:26;37.08;;;12.60;;
83404;SDS011;73331;48.168;20.776;2023-11-22T03:13:57;34.53;;;13.05;;
83404;SDS011;73331;48.168;20.776;2023-11-22T03:15:29;36.60;;;11.13;;
83404;SDS011;73331;48.168;20.776;2023-11-22T03:16:59;41.10;;;12.57;;
83404;SDS011;73331;48.168;20.776;2023-11-22T03:18:30;44.65;;;14.43;;
83404;SDS011;73331;48.168;20.776;2023-11-22T03:20:01;39.28;;;12.45;;
83404;SDS011;73331;48.168;20.776;2023-11-22T03:21:32;34.78;;;11.95;;
83404;SDS011;73331;48.168;20.776;2023-11-22T03:23:02;36.30;;;12.50;;
83404;SDS011;73331;48.168;20.776;2023-11-22T03:24:34;39.67;;;13.15;;
83404;SDS011;73331;48.168;20.776;2023-11-22T03:26:07;37.35;;;12.00;;
83404;SDS011;73331;48.168;20.776;2023-11-22T03:27:38;34.78;;;11.50;;
83404;SDS011;73331;48.168;20.776;2023-11-22T03:29:08;39.90;;;12.55;;
83404;SDS011;73331;48.168;20.776;2023-11-22T03:30:39;33.97;;;11.98;;
83404;SDS011;73331;48.168;20.776;2023-11-22T03:32:10;40.15;;;13.93;;
83404;SDS011;73331;48.168;20.776;2023-11-22T03:33:41;42.22;;;12.40;;
83404;SDS011;73331;48.168;20.776;2023-11-22T03:35:12;27.60;;;10.73;;
83404;SDS011;73331;48.168;20.776;2023-11-22T03:36:43;29.45;;;11.65;;
83404;SDS011;73331;48.168;20.776;2023-11-22T03:38:14;29.55;;;11.38;;
83404;SDS011;73331;48.168;20.776;2023-11-22T03:39:44;40.25;;;12.00;;
83404;SDS011;73331;48.168;20.776;2023-11-22T03:41:18;33.78;;;11.43;;
83404;SDS011;73331;48.168;20.776;2023-11-22T03:42:49;35.38;;;12.20;;
83404;SDS011;73331;48.168;20.776;2023-11-22T03:44:20;31.13;;;11.13;;
83404;SDS011;73331;48.168;20.776;2023-11-22T03:45:50;30.88;;;10.63;;
83404;SDS011;73331;48.168;20.776;2023-11-22T03:47:21;27.02;;;10.13;;
83404;SDS011;73331;48.168;20.776;2023-11-22T03:48:51;32.90;;;10.48;;
83404;SDS011;73331;48.168;20.776;2023-11-22T03:50:22;31.15;;;11.05;;
83404;SDS011;73331;48.168;20.776;2023-11-22T03:51:53;32.08;;;9.90;;
83404;SDS011;73331;48.168;20.776;2023-11-22T03:53:25;28.35;;;9.82;;
83404;SDS011;73331;48.168;20.776;2023-11-22T03:54:56;32.20;;;11.43;;
83404;SDS011;73331;48.168;20.776;2023-11-22T03:56:27;30.60;;;10.57;;
83404;SDS011;73331;48.168;20.776;2023-11-22T03:57:58;30.38;;;11.23;;
83404;SDS011;73331;48.168;20.776;2023-11-22T03:59:29;40.38;;;11.85;;
83404;SDS011;73331;48.168;20.776;2023-11-22T04:01:00;30.95;;;10.27;;
83404;SDS011;73331;48.168;20.776;2023-11-22T04:02:33;32.72;;;11.32;;
83404;SDS011;73331;48.168;20.776;2023-11-22T04:04:03;22.20;;;9.07;;
83404;SDS011;73331;48.168;20.776;2023-11-22T04:05:34;29.20;;;11.75;;
83404;SDS011;73331;48.168;20.776;2023-11-22T04:07:05;35.05;;;11.00;;
83404;SDS011;73331;48.168;20.776;2023-11-22T04:08:36;25.17;;;8.23;;
83404;SDS011;73331;48.168;20.776;2023-11-22T04:10:08;31.40;;;10.38;;
83404;SDS011;73331;48.168;20.776;2023-11-22T04:11:39;27.88;;;10.70;;
83404;SDS011;73331;48.168;20.776;2023-11-22T04:13:10;26.58;;;8.93;;
83404;SDS011;73331;48.168;20.776;2023-11-22T04:14:40;28.65;;;10.77;;
83404;SDS011;73331;48.168;20.776;2023-11-22T04:16:11;27.98;;;11.13;;
83404;SDS011;73331;48.168;20.776;2023-11-22T04:17:43;30.55;;;9.57;;
83404;SDS011;73331;48.168;20.776;2023-11-22T04:19:13;30.60;;;10.73;;
83404;SDS011;73331;48.168;20.776;2023-11-22T04:20:44;33.60;;;9.20;;
83404;SDS011;73331;48.168;20.776;2023-11-22T04:22:16;30.27;;;10.95;;
83404;SDS011;73331;48.168;20.776;2023-11-22T04:23:47;31.13;;;10.07;;
83404;SDS011;73331;48.168;20.776;2023-11-22T04:25:18;30.83;;;10.70;;
83404;SDS011;73331;48.168;20.776;2023-11-22T04:26:49;29.35;;;10.80;;
83404;SDS011;73331;48.168;20.776;2023-11-22T04:28:19;24.85;;;9.35;;
83404;SDS011;73331;48.168;20.776;2023-11-22T04:29:50;29.63;;;9.77;;
83404;SDS011;73331;48.168;20.776;2023-11-22T04:31:21;28.27;;;10.73;;
83404;SDS011;73331;48.168;20.776;2023-11-22T04:32:51;33.67;;;11.20;;
83404;SDS011;73331;48.168;20.776;2023-11-22T04:34:22;32.13;;;10.93;;
83404;SDS011;73331;48.168;20.776;2023-11-22T04:35:53;20.92;;;9.82;;
83404;SDS011;73331;48.168;20.776;2023-11-22T04:37:24;23.33;;;9.30;;
83404;SDS011;73331;48.168;20.776;2023-11-22T04:38:56;25.10;;;9.00;;
83404;SDS011;73331;48.168;20.776;2023-11-22T04:40:27;25.60;;;9.50;;
83404;SDS011;73331;48.168;20.776;2023-11-22T04:41:58;27.08;;;9.95;;
83404;SDS011;73331;48.168;20.776;2023-11-22T04:43:28;26.73;;;10.73;;
83404;SDS011;73331;48.168;20.776;2023-11-22T04:44:59;27.17;;;10.55;;
83404;SDS011;73331;48.168;20.776;2023-11-22T04:46:30;29.20;;;9.82;;
83404;SDS011;73331;48.168;20.776;2023-11-22T04:48:01;28.70;;;10.50;;
83404;SDS011;73331;48.168;20.776;2023-11-22T04:49:32;33.88;;;12.35;;
83404;SDS011;73331;48.168;20.776;2023-11-22T04:51:03;44.30;;;17.05;;
83404;SDS011;73331;48.168;20.776;2023-11-22T04:52:33;36.55;;;12.73;;
83404;SDS011;73331;48.168;20.776;2023-11-22T04:54:04;31.05;;;9.40;;
83404;SDS011;73331;48.168;20.776;2023-11-22T04:55:34;28.73;;;9.70;;
83404;SDS011;73331;48.168;20.776;2023-11-22T04:57:05;28.23;;;9.98;;
83404;SDS011;73331;48.168;20.776;2023-11-22T04:58:36;34.35;;;11.00;;
83404;SDS011;73331;48.168;20.776;2023-11-22T05:00:06;29.35;;;10.30;;
83404;SDS011;73331;48.168;20.776;2023-11-22T05:01:38;26.20;;;9.45;;
83404;SDS011;73331;48.168;20.776;2023-11-22T05:03:09;32.80;;;10.60;;
83404;SDS011;73331;48.168;20.776;2023-11-22T05:04:39;34.38;;;11.57;;
83404;SDS011;73331;48.168;20.776;2023-11-22T05:06:10;33.60;;;10.90;;
83404;SDS011;73331;48.168;20.776;2023-11-22T05:07:41;27.13;;;10.45;;
83404;SDS011;73331;48.168;20.776;2023-11-22T05:09:11;32.03;;;11.13;;
83404;SDS011;73331;48.168;20.776;2023-11-22T05:10:44;30.25;;;11.55;;
83404;SDS011;73331;48.168;20.776;2023-11-22T05:12:14;33.72;;;10.50;;
83404;SDS011;73331;48.168;20.776;2023-11-22T05:13:45;25.80;;;10.13;;
83404;SDS011;73331;48.168;20.776;2023-11-22T05:15:15;26.52;;;10.27;;
83404;SDS011;73331;48.168;20.776;2023-11-22T05:16:46;25.23;;;9.35;;
83404;SDS011;73331;48.168;20.776;2023-11-22T05:18:17;26.45;;;9.10;;
83404;SDS011;73331;48.168;20.776;2023-11-22T05:19:48;27.10;;;9.95;;
83404;SDS011;73331;48.168;20.776;2023-11-22T05:21:19;23.85;;;9.07;;
83404;SDS011;73331;48.168;20.776;2023-11-22T05:22:50;20.83;;;7.82;;
83404;SDS011;73331;48.168;20.776;2023-11-22T05:24:21;18.88;;;8.77;;
83404;SDS011;73331;48.168;20.776;2023-11-22T05:25:52;14.82;;;6.07;;
83404;SDS011;73331;48.168;20.776;2023-11-22T05:27:22;19.02;;;8.48;;
83404;SDS011;73331;48.168;20.776;2023-11-22T05:28:53;20.10;;;8.27;;
83404;SDS011;73331;48.168;20.776;2023-11-22T05:30:24;21.67;;;9.32;;
83404;SDS011;73331;48.168;20.776;2023-11-22T05:31:54;21.80;;;7.95;;
83404;SDS011;73331;48.168;20.776;2023-11-22T05:33:25;20.58;;;8.05;;
83404;SDS011;73331;48.168;20.776;2023-11-22T05:34:56;22.10;;;8.68;;
83404;SDS011;73331;48.168;20.776;2023-11-22T05:36:26;20.52;;;7.75;;
83404;SDS011;73331;48.168;20.776;2023-11-22T05:37:57;18.48;;;8.65;;
83404;SDS011;73331;48.168;20.776;2023-11-22T05:39:28;14.88;;;6.65;;
83404;SDS011;73331;48.168;20.776;2023-11-22T05:40:58;15.85;;;7.20;;
83404;SDS011;73331;48.168;20.776;2023-11-22T05:42:30;17.75;;;7.40;;
83404;SDS011;73331;48.168;20.776;2023-11-22T05:44:01;14.50;;;5.65;;
83404;SDS011;73331;48.168;20.776;2023-11-22T05:45:33;17.90;;;7.07;;
83404;SDS011;73331;48.168;20.776;2023-11-22T05:47:04;16.30;;;6.65;;
83404;SDS011;73331;48.168;20.776;2023-11-22T05:48:35;15.98;;;7.28;;
83404;SDS011;73331;48.168;20.776;2023-11-22T05:50:07;10.75;;;4.25;;
83404;SDS011;73331;48.168;20.776;2023-11-22T05:51:38;13.57;;;5.88;;
83404;SDS011;73331;48.168;20.776;2023-11-22T05:53:08;16.63;;;7.05;;
83404;SDS011;73331;48.168;20.776;2023-11-22T05:54:41;18.45;;;7.70;;
83404;SDS011;73331;48.168;20.776;2023-11-22T05:56:12;17.55;;;7.25;;
83404;SDS011;73331;48.168;20.776;2023-11-22T05:57:43;19.77;;;7.57;;
83404;SDS011;73331;48.168;20.776;2023-11-22T05:59:14;20.13;;;7.97;;
83404;SDS011;73331;48.168;20.776;2023-11-22T06:00:47;20.27;;;8.10;;
83404;SDS011;73331;48.168;20.776;2023-11-22T06:02:18;21.13;;;8.73;;
83404;SDS011;73331;48.168;20.776;2023-11-22T06:03:48;17.50;;;8.60;;
83404;SDS011;73331;48.168;20.776;2023-11-22T06:05:19;21.95;;;9.40;;
83404;SDS011;73331;48.168;20.776;2023-11-22T06:06:50;17.42;;;8.93;;
83404;SDS011;73331;48.168;20.776;2023-11-22T06:08:21;21.85;;;8.63;;
83404;SDS011;73331;48.168;20.776;2023-11-22T06:09:52;24.48;;;9.27;;
83404;SDS011;73331;48.168;20.776;2023-11-22T06:11:22;22.48;;;9.38;;
83404;SDS011;73331;48.168;20.776;2023-11-22T06:12:53;22.38;;;8.88;;
83404;SDS011;73331;48.168;20.776;2023-11-22T06:14:23;19.63;;;7.68;;
83404;SDS011;73331;48.168;20.776;2023-11-22T06:15:54;18.67;;;8.05;;
83404;SDS011;73331;48.168;20.776;2023-11-22T06:17:25;23.50;;;8.50;;
83404;SDS011;73331;48.168;20.776;2023-11-22T06:18:55;20.98;;;8.05;;
83404;SDS011;73331;48.168;20.776;2023-11-22T06:20:26;20.67;;;8.13;;
83404;SDS011;73331;48.168;20.776;2023-11-22T06:21:57;18.02;;;7.80;;
83404;SDS011;73331;48.168;20.776;2023-11-22T06:23:28;17.63;;;9.85;;
83404;SDS011;73331;48.168;20.776;2023-11-22T06:24:58;17.05;;;7.32;;
83404;SDS011;73331;48.168;20.776;2023-11-22T06:26:29;13.75;;;6.35;;
83404;SDS011;73331;48.168;20.776;2023-11-22T06:28:00;14.52;;;6.63;;
83404;SDS011;73331;48.168;20.776;2023-11-22T06:29:30;14.95;;;6.57;;
83404;SDS011;73331;48.168;20.776;2023-11-22T06:31:01;15.02;;;7.15;;
83404;SDS011;73331;48.168;20.776;2023-11-22T06:32:33;8.68;;;4.55;;
83404;SDS011;73331;48.168;20.776;2023-11-22T06:34:04;7.25;;;3.42;;
83404;SDS011;73331;48.168;20.776;2023-11-22T06:35:36;9.30;;;4.80;;
83404;SDS011;73331;48.168;20.776;2023-11-22T06:37:07;11.02;;;5.50;;
83404;SDS011;73331;48.168;20.776;2023-11-22T06:38:38;9.57;;;4.85;;
83404;SDS011;73331;48.168;20.776;2023-11-22T06:40:10;12.48;;;5.57;;
83404;SDS011;73331;48.168;20.776;2023-11-22T06:41:44;11.65;;;5.18;;
83404;SDS011;73331;48.168;20.776;2023-11-22T06:43:16;11.90;;;4.85;;
83404;SDS011;73331;48.168;20.776;2023-11-22T06:44:47;7.28;;;3.28;;
83404;SDS011;73331;48.168;20.776;2023-11-22T06:46:18;9.80;;;5.03;;
83404;SDS011;73331;48.168;20.776;2023-11-22T06:47:49;9.90;;;5.15;;
83404;SDS011;73331;48.168;20.776;2023-11-22T06:49:20;7.38;;;3.42;;
83404;SDS011;73331;48.168;20.776;2023-11-22T06:50:51;11.43;;;5.22;;
83404;SDS011;73331;48.168;20.776;2023-11-22T06:52:22;9.15;;;4.40;;
83404;SDS011;73331;48.168;20.776;2023-11-22T06:53:53;7.07;;;4.00;;
83404;SDS011;73331;48.168;20.776;2023-11-22T06:55:27;5.78;;;3.60;;
83404;SDS011;73331;48.168;20.776;2023-11-22T06:56:58;7.32;;;3.55;;
83404;SDS011;73331;48.168;20.776;2023-11-22T06:58:29;6.40;;;3.60;;
83404;SDS011;73331;48.168;20.776;2023-11-22T07:00:00;9.10;;;4.03;;
83404;SDS011;73331;48.168;20.776;2023-11-22T07:01:31;4.35;;;3.00;;
83404;SDS011;73331;48.168;20.776;2023-11-22T07:03:03;8.05;;;3.22;;
83404;SDS011;73331;48.168;20.776;2023-11-22T07:04:33;7.30;;;3.50;;
83404;SDS011;73331;48.168;20.776;2023-11-22T07:06:04;6.47;;;3.45;;
83404;SDS011;73331;48.168;20.776;2023-11-22T07:07:35;8.27;;;4.20;;
83404;SDS011;73331;48.168;20.776;2023-11-22T07:09:06;7.93;;;5.00;;
83404;SDS011;73331;48.168;20.776;2023-11-22T07:10:40;11.73;;;5.07;;
83404;SDS011;73331;48.168;20.776;2023-11-22T07:12:11;8.27;;;4.10;;
83404;SDS011;73331;48.168;20.776;2023-11-22T07:13:43;9.55;;;5.80;;
83404;SDS011;73331;48.168;20.776;2023-11-22T07:15:14;7.28;;;4.47;;
83404;SDS011;73331;48.168;20.776;2023-11-22T07:16:45;9.45;;;5.22;;
83404;SDS011;73331;48.168;20.776;2023-11-22T07:18:16;10.45;;;5.13;;
83404;SDS011;73331;48.168;20.776;2023-11-22T07:19:47;6.13;;;4.22;;
83404;SDS011;73331;48.168;20.776;2023-11-22T07:21:18;3.47;;;2.05;;
83404;SDS011;73331;48.168;20.776;2023-11-22T07:22:50;6.18;;;3.20;;
83404;SDS011;73331;48.168;20.776;2023-11-22T07:24:25;7.00;;;2.42;;
83404;SDS011;73331;48.168;20.776;2023-11-22T07:25:56;5.82;;;1.98;;
83404;SDS011;73331;48.168;20.776;2023-11-22T07:27:26;2.50;;;1.60;;
83404;SDS011;73331;48.168;20.776;2023-11-22T07:28:57;2.50;;;1.52;;
83404;SDS011;73331;48.168;20.776;2023-11-22T07:30:27;2.85;;;1.50;;
83404;SDS011;73331;48.168;20.776;2023-11-22T07:32:01;3.10;;;1.60;;
83404;SDS011;73331;48.168;20.776;2023-11-22T07:33:32;3.33;;;1.58;;
83404;SDS011;73331;48.168;20.776;2023-11-22T07:35:02;3.22;;;1.48;;
83404;SDS011;73331;48.168;20.776;2023-11-22T07:36:34;3.65;;;1.85;;
83404;SDS011;73331;48.168;20.776;2023-11-22T07:38:05;4.03;;;1.65;;
83404;SDS011;73331;48.168;20.776;2023-11-22T07:39:36;1.52;;;1.23;;
83404;SDS011;73331;48.168;20.776;2023-11-22T07:41:08;2.53;;;1.65;;
83404;SDS011;73331;48.168;20.776;2023-11-22T07:42:39;3.38;;;1.77;;
83404;SDS011;73331;48.168;20.776;2023-11-22T07:44:11;1.55;;;0.80;;
83404;SDS011;73331;48.168;20.776;2023-11-22T07:45:41;3.97;;;1.67;;
83404;SDS011;73331;48.168;20.776;2023-11-22T07:47:13;3.65;;;1.25;;
83404;SDS011;73331;48.168;20.776;2023-11-22T07:48:44;2.15;;;1.60;;
83404;SDS011;73331;48.168;20.776;2023-11-22T07:50:17;3.25;;;2.03;;
83404;SDS011;73331;48.168;20.776;2023-11-22T07:51:48;1.85;;;1.27;;
83404;SDS011;73331;48.168;20.776;2023-11-22T07:53:22;3.67;;;1.88;;
83404;SDS011;73331;48.168;20.776;2023-11-22T07:54:52;2.55;;;1.40;;
83404;SDS011;73331;48.168;20.776;2023-11-22T07:56:23;2.63;;;1.52;;
83404;SDS011;73331;48.168;20.776;2023-11-22T07:57:53;2.92;;;1.80;;
83404;SDS011;73331;48.168;20.776;2023-11-22T08:00:56;4.65;;;2.20;;
83404;SDS011;73331;48.168;20.776;2023-11-22T08:02:28;2.42;;;1.60;;
83404;SDS011;73331;48.168;20.776;2023-11-22T08:03:59;3.63;;;1.90;;
83404;SDS011;73331;48.168;20.776;2023-11-22T08:05:30;2.92;;;1.98;;
83404;SDS011;73331;48.168;20.776;2023-11-22T08:07:05;3.35;;;2.08;;
83404;SDS011;73331;48.168;20.776;2023-11-22T08:08:35;3.00;;;1.80;;
83404;SDS011;73331;48.168;20.776;2023-11-22T08:10:10;2.53;;;1.90;;
83404;SDS011;73331;48.168;20.776;2023-11-22T08:11:47;6.40;;;2.65;;
83404;SDS011;73331;48.168;20.776;2023-11-22T08:13:18;2.05;;;1.63;;
83404;SDS011;73331;48.168;20.776;2023-11-22T08:14:49;4.97;;;2.38;;
83404;SDS011;73331;48.168;20.776;2023-11-22T08:16:21;4.50;;;2.47;;
83404;SDS011;73331;48.168;20.776;2023-11-22T08:17:52;3.00;;;1.80;;
83404;SDS011;73331;48.168;20.776;2023-11-22T08:19:22;3.90;;;1.83;;
83404;SDS011;73331;48.168;20.776;2023-11-22T08:22:25;3.75;;;1.77;;
83404;SDS011;73331;48.168;20.776;2023-11-22T08:23:59;1.90;;;1.50;;
83404;SDS011;73331;48.168;20.776;2023-11-22T08:25:30;3.42;;;1.25;;
83404;SDS011;73331;48.168;20.776;2023-11-22T08:27:01;2.70;;;1.45;;
83404;SDS011;73331;48.168;20.776;2023-11-22T08:28:33;5.47;;;1.98;;
83404;SDS011;73331;48.168;20.776;2023-11-22T08:30:04;4.75;;;2.28;;
83404;SDS011;73331;48.168;20.776;2023-11-22T08:31:36;7.47;;;2.92;;
83404;SDS011;73331;48.168;20.776;2023-11-22T08:33:06;3.60;;;2.45;;
83404;SDS011;73331;48.168;20.776;2023-11-22T08:34:37;4.60;;;2.30;;
83404;SDS011;73331;48.168;20.776;2023-11-22T08:36:08;6.55;;;2.30;;
83404;SDS011;73331;48.168;20.776;2023-11-22T08:37:40;2.95;;;1.88;;
83404;SDS011;73331;48.168;20.776;2023-11-22T08:39:11;3.40;;;1.88;;
83404;SDS011;73331;48.168;20.776;2023-11-22T08:40:42;2.63;;;2.20;;
83404;SDS011;73331;48.168;20.776;2023-11-22T08:42:13;4.85;;;1.88;;
83404;SDS011;73331;48.168;20.776;2023-11-22T08:43:44;2.63;;;2.08;;
83404;SDS011;73331;48.168;20.776;2023-11-22T08:45:18;3.30;;;1.45;;
83404;SDS011;73331;48.168;20.776;2023-11-22T08:46:48;4.18;;;2.10;;
83404;SDS011;73331;48.168;20.776;2023-11-22T08:48:19;2.70;;;1.67;;
83404;SDS011;73331;48.168;20.776;2023-11-22T08:49:50;4.53;;;1.92;;
83404;SDS011;73331;48.168;20.776;2023-11-22T08:51:21;1.80;;;1.38;;
83404;SDS011;73331;48.168;20.776;2023-11-22T08:52:51;1.90;;;1.65;;
83404;SDS011;73331;48.168;20.776;2023-11-22T08:54:28;2.33;;;1.80;;
83404;SDS011;73331;48.168;20.776;2023-11-22T08:56:00;2.55;;;1.55;;